createdAt,value
2022-08-28T00:01:40.306Z,59.73
2022-08-28T00:06:43.313Z,69.36
2022-08-28T00:11:47.414Z,64.44
2022-08-28T00:16:52.606Z,56.39
2022-08-28T00:21:55.633Z,54.89
2022-08-28T00:27:17.137Z,57.09
2022-08-28T00:32:25.447Z,58.28
2022-08-28T00:37:29.426Z,67.01
2022-08-28T00:42:36.486Z,63.73
2022-08-28T00:47:40.308Z,54.89
2022-08-28T00:52:50.774Z,54.64
2022-08-28T00:58:00.653Z,56.05
2022-08-28T01:03:06.823Z,57.92
2022-08-28T01:08:10.029Z,59.52
2022-08-28T01:13:16.533Z,69.53
2022-08-28T01:18:22.188Z,64.10
2022-08-28T01:23:55.602Z,55.20
2022-08-28T01:29:00.897Z,53.76
2022-08-28T01:34:05.619Z,55.50
2022-08-28T01:39:15.342Z,58.04
2022-08-28T01:44:24.913Z,59.80
2022-08-28T01:49:29.563Z,69.34
2022-08-28T01:54:32.576Z,65.25
2022-08-28T01:59:36.393Z,56.78
2022-08-28T02:04:39.519Z,54.46
2022-08-28T02:09:43.070Z,55.72
2022-08-28T02:14:46.362Z,57.19
2022-08-28T02:19:49.460Z,58.55
2022-08-28T02:24:52.935Z,68.16
2022-08-28T02:29:56.015Z,63.96
2022-08-28T02:34:59.110Z,54.73
2022-08-28T02:40:03.764Z,54.15
2022-08-28T02:45:10.910Z,57.30
2022-08-28T02:50:19.031Z,58.23
2022-08-28T02:55:22.947Z,68.64
2022-08-28T03:00:26.859Z,67.26
2022-08-28T03:05:29.870Z,56.23
2022-08-28T03:10:32.955Z,54.56
2022-08-28T03:15:36.000Z,56.12
2022-08-28T03:20:40.176Z,57.96
2022-08-28T03:25:43.227Z,59.27
2022-08-28T03:30:46.484Z,68.70
2022-08-28T03:35:50.599Z,65.64
2022-08-28T03:40:54.758Z,56.71
2022-08-28T03:46:04.252Z,54.76
2022-08-28T03:51:10.745Z,56.76
2022-08-28T03:56:22.137Z,58.33
2022-08-28T04:01:26.077Z,68.28
2022-08-28T04:06:30.295Z,63.90
2022-08-28T04:11:44.378Z,54.82
2022-08-28T04:16:48.728Z,53.67
2022-08-28T04:21:52.374Z,55.77
2022-08-28T04:26:55.454Z,57.15
2022-08-28T04:31:58.819Z,59.20
2022-08-28T04:37:01.867Z,68.87
2022-08-28T04:42:05.230Z,64.41
2022-08-28T04:47:08.391Z,55.52
2022-08-28T04:52:11.957Z,54.30
2022-08-28T04:57:15.112Z,55.55
2022-08-28T05:02:18.211Z,57.80
2022-08-28T05:07:21.407Z,59.17
2022-08-28T05:12:25.104Z,68.56
2022-08-28T05:17:29.330Z,64.30
2022-08-28T05:22:35.670Z,54.62
2022-08-28T05:27:40.460Z,52.86
2022-08-28T05:32:43.526Z,54.20
2022-08-28T05:37:46.717Z,55.83
2022-08-28T05:42:50.883Z,56.82
2022-08-28T05:47:54.220Z,57.94
2022-08-28T05:52:58.207Z,58.60
2022-08-28T05:58:21.218Z,59.64
2022-08-28T06:03:24.963Z,60.39
2022-08-28T06:08:28.942Z,60.80
2022-08-28T06:13:32.768Z,61.26
2022-08-28T06:18:37.580Z,60.89
2022-08-28T06:23:41.405Z,61.14
2022-08-28T06:28:44.454Z,60.91
2022-08-28T06:33:47.475Z,60.27
2022-08-28T06:38:51.191Z,60.36
2022-08-28T06:43:56.186Z,60.06
2022-08-28T06:48:59.223Z,59.92
2022-08-28T06:54:03.903Z,59.60
2022-08-28T06:59:06.988Z,59.27
2022-08-28T07:04:12.573Z,58.83
2022-08-28T07:09:15.789Z,58.87
2022-08-28T07:14:19.132Z,58.82
2022-08-28T07:19:22.163Z,58.15
2022-08-28T07:24:26.656Z,58.20
2022-08-28T07:29:29.739Z,57.96
2022-08-28T07:34:32.830Z,57.10
2022-08-28T07:39:35.917Z,57.13
2022-08-28T07:44:51.018Z,56.82
2022-08-28T07:49:54.014Z,56.64
2022-08-28T07:54:57.553Z,55.88
2022-08-28T08:00:00.710Z,56.03
2022-08-28T08:05:05.498Z,55.55
2022-08-28T08:10:15.094Z,55.11
2022-08-28T08:15:23.715Z,54.92
2022-08-28T08:20:27.735Z,54.41
2022-08-28T08:25:30.904Z,53.58
2022-08-28T08:30:36.749Z,53.43
2022-08-28T08:35:40.176Z,53.21
2022-08-28T08:40:43.344Z,52.42
2022-08-28T08:45:49.718Z,52.22
2022-08-28T08:50:54.278Z,51.40
2022-08-28T08:55:58.473Z,50.98
2022-08-28T09:01:44.933Z,50.30
2022-08-28T09:06:56.728Z,49.60
2022-08-28T09:12:08.038Z,48.95
2022-08-28T09:17:16.662Z,48.37
2022-08-28T09:22:20.314Z,47.94
2022-08-28T09:27:33.409Z,47.08
2022-08-28T09:33:01.030Z,45.88
2022-08-28T09:38:27.538Z,45.89
2022-08-28T09:43:33.720Z,45.52
2022-08-28T09:48:40.286Z,45.71
2022-08-28T09:53:52.333Z,43.85
2022-08-28T09:59:01.444Z,43.40
2022-08-28T10:04:29.180Z,43.33
2022-08-28T10:10:09.551Z,41.97
2022-08-28T10:15:43.472Z,42.14
2022-08-28T10:21:01.627Z,41.39
2022-08-28T10:26:37.441Z,42.10
2022-08-28T10:31:47.421Z,40.58
2022-08-28T10:37:26.491Z,39.58
2022-08-28T10:42:39.736Z,40.69
2022-08-28T10:48:12.646Z,39.99
2022-08-28T10:53:26.714Z,38.68
2022-08-28T10:58:35.991Z,38.40
2022-08-28T11:03:51.678Z,38.34
2022-08-28T11:09:22.566Z,37.71
2022-08-28T11:14:32.658Z,37.30
2022-08-28T11:20:10.396Z,37.60
2022-08-28T11:25:41.924Z,36.35
2022-08-28T11:30:49.965Z,35.93
2022-08-28T11:35:53.102Z,35.80
2022-08-28T11:41:09.803Z,34.12
2022-08-28T11:46:31.658Z,33.10
2022-08-28T11:52:15.838Z,32.86
2022-08-28T11:57:47.323Z,33.99
2022-08-28T12:03:14.815Z,34.01
2022-08-28T12:08:49.099Z,33.72
2022-08-28T12:13:53.166Z,33.11
2022-08-28T12:19:01.390Z,31.15
2022-08-28T12:24:21.013Z,31.66
2022-08-28T12:29:33.514Z,33.44
2022-08-28T12:35:03.758Z,32.58
2022-08-28T12:40:22.074Z,30.04
2022-08-28T12:45:38.070Z,29.14
2022-08-28T12:50:41.270Z,29.62
2022-08-28T12:55:47.209Z,30.33
2022-08-28T13:00:59.366Z,30.10
2022-08-28T13:06:08.250Z,31.51
2022-08-28T13:11:11.373Z,37.86
2022-08-28T13:16:37.344Z,35.09
2022-08-28T13:22:03.468Z,33.09
2022-08-28T13:27:09.049Z,33.17
2022-08-28T13:32:18.220Z,33.72
2022-08-28T13:37:48.230Z,32.95
2022-08-28T13:42:59.240Z,33.72
2022-08-28T13:48:02.679Z,34.31
2022-08-28T13:53:09.448Z,33.22
2022-08-28T13:58:14.112Z,35.12
2022-08-28T14:03:38.571Z,33.50
2022-08-28T14:08:44.295Z,34.69
2022-08-28T14:13:55.808Z,36.55
2022-08-28T14:19:04.896Z,35.43
2022-08-28T14:24:09.051Z,33.07
2022-08-28T14:29:16.058Z,37.12
2022-08-28T14:34:23.662Z,38.12
2022-08-28T14:39:28.158Z,39.14
2022-08-28T14:44:31.321Z,40.32
2022-08-28T14:49:34.427Z,42.31
2022-08-28T14:54:40.643Z,43.83
2022-08-28T14:59:45.468Z,44.13
2022-08-28T15:04:48.916Z,42.70
2022-08-28T15:09:52.229Z,42.05
2022-08-28T15:14:57.157Z,41.30
2022-08-28T15:20:01.225Z,42.96
2022-08-28T15:25:06.095Z,43.45
2022-08-28T15:30:10.249Z,44.23
2022-08-28T15:35:13.324Z,45.93
2022-08-28T15:40:34.877Z,46.15
2022-08-28T15:45:40.281Z,47.47
2022-08-28T15:50:43.993Z,45.08
2022-08-28T15:55:47.018Z,43.56
2022-08-28T16:00:50.311Z,45.50
2022-08-28T16:05:53.558Z,46.99
2022-08-28T16:10:56.826Z,49.69
2022-08-28T16:16:00.021Z,53.62
2022-08-28T16:21:05.237Z,56.12
2022-08-28T16:26:10.469Z,57.74
2022-08-28T16:31:19.262Z,58.58
2022-08-28T16:36:25.398Z,59.93
2022-08-28T16:41:28.598Z,60.63
2022-08-28T16:46:33.322Z,64.41
2022-08-28T16:51:36.548Z,56.08
2022-08-28T16:56:40.259Z,58.06
2022-08-28T17:01:43.482Z,59.81
2022-08-28T17:06:46.774Z,64.35
2022-08-28T17:11:52.144Z,58.18
2022-08-28T17:16:55.402Z,58.44
2022-08-28T17:22:17.316Z,60.87
2022-08-28T17:27:22.599Z,65.80
2022-08-28T17:32:26.573Z,63.89
2022-08-28T17:37:30.040Z,57.50
2022-08-28T17:42:33.096Z,56.81
2022-08-28T17:47:36.807Z,60.33
2022-08-28T17:52:40.741Z,68.76
2022-08-28T17:57:43.754Z,63.29
2022-08-28T18:02:55.149Z,56.15
2022-08-28T18:07:59.913Z,57.55
2022-08-28T18:13:05.860Z,61.43
2022-08-28T18:18:10.964Z,67.20
2022-08-28T18:23:14.455Z,63.29
2022-08-28T18:28:22.532Z,57.72
2022-08-28T18:33:25.803Z,58.24
2022-08-28T18:38:30.036Z,59.56
2022-08-28T18:43:34.578Z,68.95
2022-08-28T18:48:38.376Z,66.43
2022-08-28T18:53:43.913Z,61.88
2022-08-28T18:58:47.974Z,56.37
2022-08-28T19:03:51.172Z,57.67
2022-08-28T19:08:54.287Z,61.01
2022-08-28T19:14:03.540Z,68.34
2022-08-28T19:19:07.668Z,62.10
2022-08-28T19:24:13.638Z,57.70
2022-08-28T19:29:17.296Z,60.70
2022-08-28T19:34:20.726Z,66.88
2022-08-28T19:39:25.437Z,61.91
2022-08-28T19:44:28.751Z,58.66
2022-08-28T19:49:31.914Z,56.73
2022-08-28T19:54:40.973Z,61.55
2022-08-28T19:59:44.989Z,66.64
2022-08-28T20:04:48.224Z,61.54
2022-08-28T20:09:52.224Z,56.95
2022-08-28T20:15:00.064Z,59.33
2022-08-28T20:20:08.678Z,66.33
2022-08-28T20:25:12.302Z,63.55
2022-08-28T20:30:18.246Z,60.32
2022-08-28T20:35:22.043Z,55.15
2022-08-28T20:40:25.751Z,56.12
2022-08-28T20:45:29.365Z,58.59
2022-08-28T20:50:32.347Z,67.27
2022-08-28T20:55:35.387Z,62.69
2022-08-28T21:00:38.798Z,59.56
2022-08-28T21:05:47.612Z,55.78
2022-08-28T21:10:52.973Z,59.38
2022-08-28T21:15:55.997Z,67.20
2022-08-28T21:20:59.132Z,61.85
2022-08-28T21:26:02.395Z,57.99
2022-08-28T21:31:13.834Z,63.95
2022-08-28T21:36:18.944Z,62.61
2022-08-28T21:41:21.973Z,60.45
2022-08-28T21:46:25.570Z,56.05
2022-08-28T21:51:28.927Z,59.16
2022-08-28T21:56:33.043Z,66.11
2022-08-28T22:01:36.195Z,63.24
2022-08-28T22:06:40.654Z,60.07
2022-08-28T22:11:43.689Z,63.87
2022-08-28T22:16:46.948Z,63.14
2022-08-28T22:22:08.685Z,61.17
2022-08-28T22:27:13.645Z,60.90
2022-08-28T22:32:16.989Z,59.02
2022-08-28T22:37:20.194Z,64.36
2022-08-28T22:42:23.365Z,62.74
2022-08-28T22:47:26.456Z,61.24
2022-08-28T22:52:29.578Z,61.43
2022-08-28T22:57:32.805Z,61.29
2022-08-28T23:02:36.197Z,61.21
2022-08-28T23:07:39.630Z,61.03
2022-08-28T23:12:43.642Z,61.23
2022-08-28T23:17:47.668Z,61.29
2022-08-28T23:22:56.403Z,61.33
2022-08-28T23:28:14.614Z,60.38
2022-08-28T23:33:23.815Z,61.06
2022-08-28T23:38:27.759Z,60.37
2022-08-28T23:43:31.685Z,56.15
2022-08-28T23:48:35.230Z,58.59
2022-08-28T23:53:40.988Z,67.74
2022-08-28T23:58:45.530Z,64.61
